sensor_id;sensor_type;location;lat;lon;timestamp;pressure;altitude;pressure_sealevel;temperature;humidity
12785;BME280;6456;42.680;23.260;2023-05-10T00:02:16;94762.97;;;9.42;100.00
12785;BME280;6456;42.680;23.260;2023-05-10T00:04:43;94902.69;;;10.31;100.00
12785;BME280;6456;42.680;23.260;2023-05-10T00:07:16;94804.78;;;9.70;100.00
12785;BME280;6456;42.680;23.260;2023-05-10T00:09:46;94809.06;;;9.84;100.00
12785;BME280;6456;42.680;23.260;2023-05-10T00:12:14;94811.69;;;9.84;100.00
12785;BME280;6456;42.680;23.260;2023-05-10T00:14:41;94833.09;;;9.94;100.00
12785;BME280;6456;42.680;23.260;2023-05-10T00:17:08;94810.84;;;9.77;100.00
12785;BME280;6456;42.680;23.260;2023-05-10T00:19:35;94851.72;;;10.19;100.00
12785;BME280;6456;42.680;23.260;2023-05-10T00:22:02;94801.97;;;9.78;100.00
12785;BME280;6456;42.680;23.260;2023-05-10T00:24:31;94799.13;;;9.73;100.00
12785;BME280;6456;42.680;23.260;2023-05-10T00:26:58;94819.34;;;9.86;100.00
12785;BME280;6456;42.680;23.260;2023-05-10T00:29:28;94809.25;;;9.83;100.00
12785;BME280;6456;42.680;23.260;2023-05-10T00:31:56;94855.34;;;9.92;100.00
12785;BME280;6456;42.680;23.260;2023-05-10T00:34:24;94762.34;;;9.27;100.00
12785;BME280;6456;42.680;23.260;2023-05-10T00:36:52;94803.78;;;9.51;100.00
12785;BME280;6456;42.680;23.260;2023-05-10T00:39:22;94870.31;;;9.91;100.00
12785;BME280;6456;42.680;23.260;2023-05-10T00:41:51;94846.06;;;9.89;100.00
12785;BME280;6456;42.680;23.260;2023-05-10T00:44:18;94842.00;;;9.87;100.00
12785;BME280;6456;42.680;23.260;2023-05-10T00:46:45;94855.72;;;9.82;100.00
12785;BME280;6456;42.680;23.260;2023-05-10T00:49:13;94779.13;;;9.33;100.00
12785;BME280;6456;42.680;23.260;2023-05-10T00:51:44;94781.97;;;9.44;100.00
12785;BME280;6456;42.680;23.260;2023-05-10T00:54:12;94745.19;;;9.12;100.00
12785;BME280;6456;42.680;23.260;2023-05-10T00:56:43;94715.25;;;8.99;100.00
12785;BME280;6456;42.680;23.260;2023-05-10T00:59:18;94839.16;;;9.68;100.00
12785;BME280;6456;42.680;23.260;2023-05-10T01:01:50;94769.84;;;9.24;100.00
12785;BME280;6456;42.680;23.260;2023-05-10T01:04:23;94727.56;;;8.92;100.00
12785;BME280;6456;42.680;23.260;2023-05-10T01:06:51;94807.22;;;9.39;100.00
12785;BME280;6456;42.680;23.260;2023-05-10T01:09:19;94760.31;;;9.03;100.00
12785;BME280;6456;42.680;23.260;2023-05-10T01:11:48;94736.66;;;8.90;100.00
12785;BME280;6456;42.680;23.260;2023-05-10T01:14:18;94723.75;;;8.88;100.00
12785;BME280;6456;42.680;23.260;2023-05-10T01:16:47;94826.41;;;9.52;100.00
12785;BME280;6456;42.680;23.260;2023-05-10T01:19:18;94788.59;;;9.21;100.00
12785;BME280;6456;42.680;23.260;2023-05-10T01:22:00;94744.94;;;8.93;100.00
12785;BME280;6456;42.680;23.260;2023-05-10T01:25:06;94791.84;;;9.36;100.00
12785;BME280;6456;42.680;23.260;2023-05-10T01:27:51;94726.53;;;8.87;100.00
12785;BME280;6456;42.680;23.260;2023-05-10T01:33:25;94847.25;;;9.54;100.00
12785;BME280;6456;42.680;23.260;2023-05-10T01:36:00;94742.91;;;8.82;100.00
12785;BME280;6456;42.680;23.260;2023-05-10T01:38:34;94838.34;;;9.55;100.00
12785;BME280;6456;42.680;23.260;2023-05-10T01:41:13;94680.91;;;8.68;100.00
12785;BME280;6456;42.680;23.260;2023-05-10T01:43:48;94677.47;;;8.74;100.00
12785;BME280;6456;42.680;23.260;2023-05-10T01:46:26;94729.81;;;9.02;100.00
12785;BME280;6456;42.680;23.260;2023-05-10T01:48:57;94786.22;;;9.39;100.00
12785;BME280;6456;42.680;23.260;2023-05-10T01:51:29;94719.91;;;8.91;100.00
12785;BME280;6456;42.680;23.260;2023-05-10T01:54:00;94683.72;;;8.67;100.00
12785;BME280;6456;42.680;23.260;2023-05-10T01:56:31;94755.47;;;9.13;100.00
12785;BME280;6456;42.680;23.260;2023-05-10T01:59:00;94786.56;;;9.23;100.00
12785;BME280;6456;42.680;23.260;2023-05-10T02:01:27;94730.19;;;8.92;100.00
12785;BME280;6456;42.680;23.260;2023-05-10T02:04:07;94699.72;;;8.78;100.00
12785;BME280;6456;42.680;23.260;2023-05-10T02:06:53;94805.59;;;9.38;100.00
12785;BME280;6456;42.680;23.260;2023-05-10T02:09:29;94808.44;;;9.36;100.00
12785;BME280;6456;42.680;23.260;2023-05-10T02:12:02;94766.78;;;9.14;100.00
12785;BME280;6456;42.680;23.260;2023-05-10T02:14:35;94690.38;;;8.63;100.00
12785;BME280;6456;42.680;23.260;2023-05-10T02:17:04;94719.09;;;8.90;100.00
12785;BME280;6456;42.680;23.260;2023-05-10T02:19:35;94677.88;;;8.65;100.00
12785;BME280;6456;42.680;23.260;2023-05-10T02:22:04;94736.81;;;8.82;100.00
12785;BME280;6456;42.680;23.260;2023-05-10T02:24:32;94751.00;;;8.94;100.00
12785;BME280;6456;42.680;23.260;2023-05-10T02:27:01;94732.44;;;8.95;100.00
12785;BME280;6456;42.680;23.260;2023-05-10T02:29:30;94746.16;;;8.97;100.00
12785;BME280;6456;42.680;23.260;2023-05-10T02:31:58;94773.22;;;9.04;100.00
12785;BME280;6456;42.680;23.260;2023-05-10T02:34:27;94780.34;;;9.24;100.00
12785;BME280;6456;42.680;23.260;2023-05-10T02:36:56;94740.47;;;8.87;100.00
12785;BME280;6456;42.680;23.260;2023-05-10T02:39:27;94801.72;;;9.14;100.00
12785;BME280;6456;42.680;23.260;2023-05-10T02:41:56;94801.91;;;9.06;100.00
12785;BME280;6456;42.680;23.260;2023-05-10T02:44:26;94806.50;;;8.97;100.00
12785;BME280;6456;42.680;23.260;2023-05-10T02:46:56;94790.97;;;8.96;100.00
12785;BME280;6456;42.680;23.260;2023-05-10T02:49:24;94771.53;;;8.77;100.00
12785;BME280;6456;42.680;23.260;2023-05-10T02:51:55;94753.13;;;8.58;100.00
12785;BME280;6456;42.680;23.260;2023-05-10T02:54:33;94785.84;;;8.68;100.00
12785;BME280;6456;42.680;23.260;2023-05-10T02:57:06;94796.13;;;8.70;100.00
12785;BME280;6456;42.680;23.260;2023-05-10T02:59:40;94710.53;;;8.08;100.00
12785;BME280;6456;42.680;23.260;2023-05-10T03:02:08;94673.56;;;7.84;100.00
12785;BME280;6456;42.680;23.260;2023-05-10T03:04:41;94737.38;;;8.17;100.00
12785;BME280;6456;42.680;23.260;2023-05-10T03:07:13;94743.66;;;8.16;100.00
12785;BME280;6456;42.680;23.260;2023-05-10T03:09:42;94825.34;;;8.60;100.00
12785;BME280;6456;42.680;23.260;2023-05-10T03:12:17;94839.56;;;8.79;100.00
12785;BME280;6456;42.680;23.260;2023-05-10T03:14:53;94766.94;;;8.32;100.00
12785;BME280;6456;42.680;23.260;2023-05-10T03:17:33;94719.00;;;8.04;100.00
12785;BME280;6456;42.680;23.260;2023-05-10T03:20:06;94702.41;;;7.97;100.00
12785;BME280;6456;42.680;23.260;2023-05-10T03:22:37;94737.44;;;8.23;100.00
12785;BME280;6456;42.680;23.260;2023-05-10T03:25:07;94744.72;;;8.28;100.00
12785;BME280;6456;42.680;23.260;2023-05-10T03:27:39;94800.91;;;8.53;100.00
12785;BME280;6456;42.680;23.260;2023-05-10T03:30:08;94724.47;;;8.15;100.00
12785;BME280;6456;42.680;23.260;2023-05-10T03:32:37;94745.72;;;8.27;100.00
12785;BME280;6456;42.680;23.260;2023-05-10T03:35:07;94823.84;;;8.79;100.00
12785;BME280;6456;42.680;23.260;2023-05-10T03:37:34;94859.66;;;9.06;100.00
12785;BME280;6456;42.680;23.260;2023-05-10T03:40:01;94843.47;;;9.02;100.00
12785;BME280;6456;42.680;23.260;2023-05-10T03:42:30;94833.78;;;8.96;100.00
12785;BME280;6456;42.680;23.260;2023-05-10T03:44:57;94866.31;;;9.09;100.00
12785;BME280;6456;42.680;23.260;2023-05-10T03:47:24;94857.44;;;9.10;100.00
12785;BME280;6456;42.680;23.260;2023-05-10T03:49:52;94849.53;;;8.96;100.00
12785;BME280;6456;42.680;23.260;2023-05-10T03:52:19;94820.41;;;8.78;100.00
12785;BME280;6456;42.680;23.260;2023-05-10T03:54:46;94800.56;;;8.63;100.00
12785;BME280;6456;42.680;23.260;2023-05-10T03:57:13;94818.16;;;8.69;100.00
12785;BME280;6456;42.680;23.260;2023-05-10T03:59:41;94822.81;;;8.80;100.00
12785;BME280;6456;42.680;23.260;2023-05-10T04:02:08;94845.22;;;8.82;100.00
12785;BME280;6456;42.680;23.260;2023-05-10T04:04:35;94835.16;;;8.92;100.00
12785;BME280;6456;42.680;23.260;2023-05-10T04:07:03;94823.25;;;8.83;100.00
12785;BME280;6456;42.680;23.260;2023-05-10T04:09:29;94842.66;;;8.95;100.00
12785;BME280;6456;42.680;23.260;2023-05-10T04:11:56;94842.31;;;9.12;100.00
12785;BME280;6456;42.680;23.260;2023-05-10T04:14:25;94832.22;;;9.15;100.00
12785;BME280;6456;42.680;23.260;2023-05-10T04:16:53;94884.78;;;9.41;100.00
12785;BME280;6456;42.680;23.260;2023-05-10T04:19:20;94799.41;;;8.78;100.00
12785;BME280;6456;42.680;23.260;2023-05-10T04:21:48;94839.06;;;9.10;100.00
12785;BME280;6456;42.680;23.260;2023-05-10T04:24:15;94882.38;;;9.53;100.00
12785;BME280;6456;42.680;23.260;2023-05-10T04:26:41;94895.34;;;9.61;100.00
12785;BME280;6456;42.680;23.260;2023-05-10T04:29:08;94885.63;;;9.42;100.00
12785;BME280;6456;42.680;23.260;2023-05-10T04:31:38;94872.66;;;9.40;100.00
12785;BME280;6456;42.680;23.260;2023-05-10T04:34:06;94816.03;;;9.05;100.00
12785;BME280;6456;42.680;23.260;2023-05-10T04:39:18;94887.16;;;9.30;100.00
12785;BME280;6456;42.680;23.260;2023-05-10T04:41:45;94884.75;;;9.22;100.00
12785;BME280;6456;42.680;23.260;2023-05-10T04:44:12;94848.34;;;9.06;100.00
12785;BME280;6456;42.680;23.260;2023-05-10T04:46:39;94869.81;;;9.29;100.00
12785;BME280;6456;42.680;23.260;2023-05-10T04:49:07;94890.06;;;9.48;100.00
12785;BME280;6456;42.680;23.260;2023-05-10T04:51:34;94868.56;;;9.25;100.00
12785;BME280;6456;42.680;23.260;2023-05-10T04:54:01;94871.81;;;9.20;100.00
12785;BME280;6456;42.680;23.260;2023-05-10T04:56:28;94887.16;;;9.23;100.00
12785;BME280;6456;42.680;23.260;2023-05-10T04:58:54;94883.72;;;9.23;100.00
12785;BME280;6456;42.680;23.260;2023-05-10T05:01:21;94897.50;;;9.38;100.00
12785;BME280;6456;42.680;23.260;2023-05-10T05:03:48;94886.19;;;9.31;100.00
12785;BME280;6456;42.680;23.260;2023-05-10T05:06:17;94818.38;;;8.80;100.00
12785;BME280;6456;42.680;23.260;2023-05-10T05:08:44;94893.50;;;9.42;100.00
12785;BME280;6456;42.680;23.260;2023-05-10T05:11:11;94891.25;;;9.52;100.00
12785;BME280;6456;42.680;23.260;2023-05-10T05:13:37;94896.94;;;9.49;100.00
12785;BME280;6456;42.680;23.260;2023-05-10T05:16:05;94895.91;;;9.43;100.00
12785;BME280;6456;42.680;23.260;2023-05-10T05:18:32;94896.94;;;9.55;100.00
12785;BME280;6456;42.680;23.260;2023-05-10T05:20:59;94838.69;;;9.26;100.00
12785;BME280;6456;42.680;23.260;2023-05-10T05:23:27;94829.22;;;9.31;100.00
12785;BME280;6456;42.680;23.260;2023-05-10T05:25:54;94891.69;;;9.62;100.00
12785;BME280;6456;42.680;23.260;2023-05-10T05:28:21;94818.50;;;9.33;100.00
12785;BME280;6456;42.680;23.260;2023-05-10T05:30:48;94797.47;;;9.13;100.00
12785;BME280;6456;42.680;23.260;2023-05-10T05:33:15;94831.03;;;9.24;100.00
12785;BME280;6456;42.680;23.260;2023-05-10T05:35:42;94854.91;;;9.49;100.00
12785;BME280;6456;42.680;23.260;2023-05-10T05:38:13;94775.06;;;9.11;100.00
12785;BME280;6456;42.680;23.260;2023-05-10T05:40:41;94855.88;;;9.35;100.00
12785;BME280;6456;42.680;23.260;2023-05-10T05:43:08;94860.34;;;9.47;100.00
12785;BME280;6456;42.680;23.260;2023-05-10T05:45:35;94911.34;;;9.79;100.00
12785;BME280;6456;42.680;23.260;2023-05-10T05:48:02;94818.25;;;9.15;100.00
12785;BME280;6456;42.680;23.260;2023-05-10T05:50:29;94922.81;;;9.65;100.00
12785;BME280;6456;42.680;23.260;2023-05-10T05:52:56;94828.97;;;9.07;100.00
12785;BME280;6456;42.680;23.260;2023-05-10T05:55:23;94788.75;;;8.86;100.00
12785;BME280;6456;42.680;23.260;2023-05-10T05:57:52;94873.47;;;9.34;100.00
12785;BME280;6456;42.680;23.260;2023-05-10T06:00:19;94898.16;;;9.53;100.00
12785;BME280;6456;42.680;23.260;2023-05-10T06:02:46;94834.44;;;9.12;100.00
12785;BME280;6456;42.680;23.260;2023-05-10T06:05:13;94789.78;;;9.05;100.00
12785;BME280;6456;42.680;23.260;2023-05-10T06:07:40;94819.31;;;9.27;100.00
12785;BME280;6456;42.680;23.260;2023-05-10T06:10:08;94900.63;;;9.74;100.00
12785;BME280;6456;42.680;23.260;2023-05-10T06:12:35;94841.16;;;9.40;100.00
12785;BME280;6456;42.680;23.260;2023-05-10T06:15:04;94830.81;;;9.26;100.00
12785;BME280;6456;42.680;23.260;2023-05-10T06:17:32;94871.28;;;9.51;100.00
12785;BME280;6456;42.680;23.260;2023-05-10T06:19:58;94906.63;;;9.55;100.00
12785;BME280;6456;42.680;23.260;2023-05-10T06:22:25;94885.16;;;9.25;100.00
12785;BME280;6456;42.680;23.260;2023-05-10T06:24:52;94888.16;;;9.22;100.00
12785;BME280;6456;42.680;23.260;2023-05-10T06:27:19;94874.84;;;9.30;100.00
12785;BME280;6456;42.680;23.260;2023-05-10T06:29:46;94846.56;;;9.26;100.00
12785;BME280;6456;42.680;23.260;2023-05-10T06:32:14;94854.28;;;9.47;100.00
12785;BME280;6456;42.680;23.260;2023-05-10T06:34:41;94841.16;;;9.40;100.00
12785;BME280;6456;42.680;23.260;2023-05-10T06:37:08;94929.94;;;9.91;100.00
12785;BME280;6456;42.680;23.260;2023-05-10T06:39:36;94893.34;;;9.76;100.00
12785;BME280;6456;42.680;23.260;2023-05-10T06:42:03;94825.34;;;9.27;100.00
12785;BME280;6456;42.680;23.260;2023-05-10T06:44:30;94835.72;;;9.42;100.00
12785;BME280;6456;42.680;23.260;2023-05-10T06:47:18;94944.16;;;10.22;100.00
12785;BME280;6456;42.680;23.260;2023-05-10T06:49:45;94909.56;;;10.12;100.00
12785;BME280;6456;42.680;23.260;2023-05-10T06:52:12;94795.91;;;9.64;100.00
12785;BME280;6456;42.680;23.260;2023-05-10T06:54:38;94875.38;;;9.99;100.00
12785;BME280;6456;42.680;23.260;2023-05-10T06:57:06;94954.47;;;10.57;100.00
12785;BME280;6456;42.680;23.260;2023-05-10T06:59:33;94927.38;;;10.37;100.00
12785;BME280;6456;42.680;23.260;2023-05-10T07:02:01;94904.50;;;10.17;100.00
12785;BME280;6456;42.680;23.260;2023-05-10T07:04:30;94959.13;;;10.42;100.00
12785;BME280;6456;42.680;23.260;2023-05-10T07:06:57;94904.31;;;10.19;100.00
12785;BME280;6456;42.680;23.260;2023-05-10T07:09:23;94853.72;;;9.97;100.00
12785;BME280;6456;42.680;23.260;2023-05-10T07:11:50;94837.75;;;9.92;100.00
12785;BME280;6456;42.680;23.260;2023-05-10T07:14:20;94940.28;;;10.58;100.00
12785;BME280;6456;42.680;23.260;2023-05-10T07:17:04;94959.28;;;10.73;100.00
12785;BME280;6456;42.680;23.260;2023-05-10T07:19:33;94872.75;;;10.25;100.00
12785;BME280;6456;42.680;23.260;2023-05-10T07:22:00;94918.03;;;10.54;100.00
12785;BME280;6456;42.680;23.260;2023-05-10T07:24:27;94930.78;;;10.63;100.00
12785;BME280;6456;42.680;23.260;2023-05-10T07:26:53;94870.94;;;10.19;100.00
12785;BME280;6456;42.680;23.260;2023-05-10T07:29:20;94944.53;;;10.52;100.00
12785;BME280;6456;42.680;23.260;2023-05-10T07:31:47;94867.50;;;10.19;100.00
12785;BME280;6456;42.680;23.260;2023-05-10T07:34:14;94928.75;;;10.72;100.00
12785;BME280;6456;42.680;23.260;2023-05-10T07:36:42;94896.97;;;10.67;100.00
12785;BME280;6456;42.680;23.260;2023-05-10T07:39:09;94959.88;;;10.94;100.00
12785;BME280;6456;42.680;23.260;2023-05-10T07:41:36;94921.25;;;10.62;100.00
12785;BME280;6456;42.680;23.260;2023-05-10T07:44:04;94964.13;;;10.82;100.00
12785;BME280;6456;42.680;23.260;2023-05-10T07:46:31;94966.38;;;10.79;100.00
12785;BME280;6456;42.680;23.260;2023-05-10T07:48:58;94953.63;;;10.76;100.00
12785;BME280;6456;42.680;23.260;2023-05-10T07:51:25;94955.63;;;10.80;100.00
12785;BME280;6456;42.680;23.260;2023-05-10T07:53:54;94968.63;;;10.82;100.00
12785;BME280;6456;42.680;23.260;2023-05-10T07:56:24;94948.59;;;10.55;100.00
12785;BME280;6456;42.680;23.260;2023-05-10T07:58:52;94891.16;;;10.19;100.00
12785;BME280;6456;42.680;23.260;2023-05-10T08:01:19;94970.22;;;10.89;100.00
12785;BME280;6456;42.680;23.260;2023-05-10T08:03:46;94974.88;;;10.94;100.00
12785;BME280;6456;42.680;23.260;2023-05-10T08:06:13;94978.03;;;11.16;100.00
12785;BME280;6456;42.680;23.260;2023-05-10T08:08:41;94978.44;;;11.19;100.00
12785;BME280;6456;42.680;23.260;2023-05-10T08:11:09;94983.09;;;11.24;100.00
12785;BME280;6456;42.680;23.260;2023-05-10T08:13:36;94976.19;;;11.29;100.00
12785;BME280;6456;42.680;23.260;2023-05-10T08:16:03;94976.78;;;11.25;100.00
12785;BME280;6456;42.680;23.260;2023-05-10T08:18:30;94973.38;;;11.18;100.00
12785;BME280;6456;42.680;23.260;2023-05-10T08:20:57;94976.78;;;11.31;100.00
12785;BME280;6456;42.680;23.260;2023-05-10T08:23:24;94941.13;;;11.22;100.00
12785;BME280;6456;42.680;23.260;2023-05-10T08:25:52;94968.66;;;11.39;100.00
12785;BME280;6456;42.680;23.260;2023-05-10T08:28:20;94974.97;;;11.32;100.00
12785;BME280;6456;42.680;23.260;2023-05-10T08:30:47;94925.59;;;11.14;100.00
12785;BME280;6456;42.680;23.260;2023-05-10T08:33:13;94947.53;;;11.46;100.00
12785;BME280;6456;42.680;23.260;2023-05-10T08:35:40;94983.38;;;11.53;100.00
12785;BME280;6456;42.680;23.260;2023-05-10T08:38:07;94967.97;;;11.50;100.00
12785;BME280;6456;42.680;23.260;2023-05-10T08:40:34;94888.59;;;10.83;100.00
12785;BME280;6456;42.680;23.260;2023-05-10T08:43:05;94929.81;;;11.22;100.00
12785;BME280;6456;42.680;23.260;2023-05-10T08:45:37;94969.81;;;11.50;100.00
12785;BME280;6456;42.680;23.260;2023-05-10T08:48:06;94931.69;;;10.95;100.00
12785;BME280;6456;42.680;23.260;2023-05-10T08:50:35;94883.53;;;10.88;100.00
12785;BME280;6456;42.680;23.260;2023-05-10T08:53:04;94977.69;;;11.70;100.00
12785;BME280;6456;42.680;23.260;2023-05-10T08:55:32;94962.81;;;11.75;100.00
12785;BME280;6456;42.680;23.260;2023-05-10T08:58:02;94910.66;;;11.46;100.00
12785;BME280;6456;42.680;23.260;2023-05-10T09:00:29;94976.69;;;11.95;100.00
12785;BME280;6456;42.680;23.260;2023-05-10T09:02:57;94985.66;;;11.88;100.00
12785;BME280;6456;42.680;23.260;2023-05-10T09:05:24;94978.97;;;11.92;100.00
12785;BME280;6456;42.680;23.260;2023-05-10T09:07:51;94995.22;;;12.20;100.00
12785;BME280;6456;42.680;23.260;2023-05-10T09:10:19;94934.63;;;11.82;100.00
12785;BME280;6456;42.680;23.260;2023-05-10T09:12:47;94942.66;;;11.94;100.00
12785;BME280;6456;42.680;23.260;2023-05-10T09:15:15;94940.88;;;12.12;100.00
12785;BME280;6456;42.680;23.260;2023-05-10T09:17:44;94970.31;;;12.41;100.00
12785;BME280;6456;42.680;23.260;2023-05-10T09:20:13;94986.91;;;12.72;100.00
12785;BME280;6456;42.680;23.260;2023-05-10T09:22:40;94983.03;;;12.75;100.00
12785;BME280;6456;42.680;23.260;2023-05-10T09:25:08;94984.00;;;12.99;100.00
12785;BME280;6456;42.680;23.260;2023-05-10T09:27:37;94988.19;;;12.88;100.00
12785;BME280;6456;42.680;23.260;2023-05-10T09:30:05;94991.16;;;12.73;99.20
12785;BME280;6456;42.680;23.260;2023-05-10T09:32:39;94964.19;;;12.47;98.90
12785;BME280;6456;42.680;23.260;2023-05-10T09:35:10;94966.16;;;12.27;99.60
12785;BME280;6456;42.680;23.260;2023-05-10T09:37:42;94986.78;;;12.61;100.00
12785;BME280;6456;42.680;23.260;2023-05-10T09:40:12;94971.69;;;12.68;100.00
12785;BME280;6456;42.680;23.260;2023-05-10T09:42:51;94977.94;;;12.73;99.46
12785;BME280;6456;42.680;23.260;2023-05-10T09:45:18;94894.28;;;12.31;98.36
12785;BME280;6456;42.680;23.260;2023-05-10T09:47:46;94931.75;;;12.64;97.37
12785;BME280;6456;42.680;23.260;2023-05-10T09:50:12;94904.88;;;12.49;97.20
12785;BME280;6456;42.680;23.260;2023-05-10T09:52:48;94968.06;;;13.12;96.65
12785;BME280;6456;42.680;23.260;2023-05-10T09:55:17;94971.38;;;13.25;95.52
12785;BME280;6456;42.680;23.260;2023-05-10T09:57:44;94909.63;;;13.02;95.29
12785;BME280;6456;42.680;23.260;2023-05-10T10:00:17;94880.00;;;13.00;93.18
12785;BME280;6456;42.680;23.260;2023-05-10T10:02:45;94965.56;;;13.53;91.20
12785;BME280;6456;42.680;23.260;2023-05-10T10:05:13;94884.88;;;12.96;91.46
12785;BME280;6456;42.680;23.260;2023-05-10T10:07:40;94912.00;;;13.10;91.04
12785;BME280;6456;42.680;23.260;2023-05-10T10:10:09;94967.75;;;13.38;90.98
12785;BME280;6456;42.680;23.260;2023-05-10T10:12:39;94912.78;;;12.92;92.12
12785;BME280;6456;42.680;23.260;2023-05-10T10:15:08;94951.31;;;13.18;93.94
12785;BME280;6456;42.680;23.260;2023-05-10T10:17:36;94955.59;;;13.37;92.79
12785;BME280;6456;42.680;23.260;2023-05-10T10:20:05;94940.03;;;13.47;94.04
12785;BME280;6456;42.680;23.260;2023-05-10T10:22:32;94942.44;;;13.48;91.33
12785;BME280;6456;42.680;23.260;2023-05-10T10:25:02;94937.91;;;13.37;90.81
12785;BME280;6456;42.680;23.260;2023-05-10T10:27:39;94912.75;;;13.17;91.58
12785;BME280;6456;42.680;23.260;2023-05-10T10:30:16;94936.03;;;13.38;91.82
12785;BME280;6456;42.680;23.260;2023-05-10T10:33:16;94976.78;;;13.30;91.79
12785;BME280;6456;42.680;23.260;2023-05-10T10:35:45;94892.03;;;12.77;92.47
12785;BME280;6456;42.680;23.260;2023-05-10T10:38:16;94957.72;;;13.28;93.00
12785;BME280;6456;42.680;23.260;2023-05-10T10:40:45;94893.03;;;12.95;94.22
12785;BME280;6456;42.680;23.260;2023-05-10T10:43:31;94938.25;;;13.23;92.78
12785;BME280;6456;42.680;23.260;2023-05-10T10:46:11;94908.28;;;12.74;93.11
12785;BME280;6456;42.680;23.260;2023-05-10T10:48:39;94957.94;;;13.09;93.85
12785;BME280;6456;42.680;23.260;2023-05-10T10:51:06;94964.22;;;12.90;94.99
12785;BME280;6456;42.680;23.260;2023-05-10T10:53:37;94964.72;;;12.98;94.90
12785;BME280;6456;42.680;23.260;2023-05-10T10:56:11;94919.72;;;12.68;95.75
12785;BME280;6456;42.680;23.260;2023-05-10T10:58:49;94962.69;;;12.75;95.94
12785;BME280;6456;42.680;23.260;2023-05-10T11:01:17;94955.06;;;12.67;96.86
12785;BME280;6456;42.680;23.260;2023-05-10T11:04:18;94960.97;;;12.88;95.99
12785;BME280;6456;42.680;23.260;2023-05-10T11:06:46;94967.31;;;13.05;94.78
12785;BME280;6456;42.680;23.260;2023-05-10T11:09:13;94965.44;;;13.30;94.98
12785;BME280;6456;42.680;23.260;2023-05-10T11:11:51;94935.75;;;13.28;93.78
12785;BME280;6456;42.680;23.260;2023-05-10T11:14:25;94950.16;;;13.50;93.37
12785;BME280;6456;42.680;23.260;2023-05-10T11:16:54;94894.38;;;13.22;93.01
12785;BME280;6456;42.680;23.260;2023-05-10T11:19:27;94863.25;;;13.06;90.88
12785;BME280;6456;42.680;23.260;2023-05-10T11:22:15;94891.59;;;13.17;90.88
12785;BME280;6456;42.680;23.260;2023-05-10T11:24:56;94883.78;;;13.04;91.27
12785;BME280;6456;42.680;23.260;2023-05-10T11:27:23;94956.16;;;13.57;92.10
12785;BME280;6456;42.680;23.260;2023-05-10T11:29:55;94905.91;;;13.09;90.90
12785;BME280;6456;42.680;23.260;2023-05-10T11:32:23;94837.44;;;12.90;91.89
12785;BME280;6456;42.680;23.260;2023-05-10T11:34:51;94845.03;;;12.98;90.19
12785;BME280;6456;42.680;23.260;2023-05-10T11:37:18;94881.88;;;13.29;91.57
12785;BME280;6456;42.680;23.260;2023-05-10T11:39:46;94956.72;;;13.77;91.54
12785;BME280;6456;42.680;23.260;2023-05-10T11:42:13;94907.94;;;13.43;91.10
12785;BME280;6456;42.680;23.260;2023-05-10T11:44:40;94960.50;;;13.52;90.97
12785;BME280;6456;42.680;23.260;2023-05-10T11:47:11;94961.47;;;13.57;92.68
12785;BME280;6456;42.680;23.260;2023-05-10T11:49:38;94957.84;;;13.52;92.85
12785;BME280;6456;42.680;23.260;2023-05-10T11:52:06;94906.34;;;13.06;93.13
12785;BME280;6456;42.680;23.260;2023-05-10T11:54:33;94877.91;;;12.83;92.93
12785;BME280;6456;42.680;23.260;2023-05-10T11:57:00;94934.59;;;13.24;93.83
12785;BME280;6456;42.680;23.260;2023-05-10T11:59:27;94929.97;;;13.37;94.91
12785;BME280;6456;42.680;23.260;2023-05-10T12:01:55;94942.00;;;13.52;94.68
12785;BME280;6456;42.680;23.260;2023-05-10T12:04:26;94882.19;;;13.21;93.44
12785;BME280;6456;42.680;23.260;2023-05-10T12:06:54;94871.56;;;13.09;93.60
12785;BME280;6456;42.680;23.260;2023-05-10T12:09:21;94942.38;;;13.55;94.30
12785;BME280;6456;42.680;23.260;2023-05-10T12:11:48;94933.50;;;13.79;94.78
12785;BME280;6456;42.680;23.260;2023-05-10T12:14:15;94932.00;;;13.83;94.46
12785;BME280;6456;42.680;23.260;2023-05-10T12:16:47;94933.63;;;13.84;93.33
12785;BME280;6456;42.680;23.260;2023-05-10T12:19:18;94932.59;;;13.85;92.74
12785;BME280;6456;42.680;23.260;2023-05-10T12:21:49;94909.47;;;13.51;93.33
12785;BME280;6456;42.680;23.260;2023-05-10T12:24:16;94854.75;;;13.22;94.10
12785;BME280;6456;42.680;23.260;2023-05-10T12:26:45;94928.78;;;13.81;92.96
12785;BME280;6456;42.680;23.260;2023-05-10T12:29:15;94927.91;;;13.87;92.64
12785;BME280;6456;42.680;23.260;2023-05-10T12:31:54;94934.22;;;13.86;92.90
12785;BME280;6456;42.680;23.260;2023-05-10T12:34:25;94912.38;;;13.61;92.73
12785;BME280;6456;42.680;23.260;2023-05-10T12:36:54;94900.78;;;13.62;94.15
12785;BME280;6456;42.680;23.260;2023-05-10T12:39:21;94878.25;;;13.60;94.38
12785;BME280;6456;42.680;23.260;2023-05-10T12:41:48;94915.72;;;13.98;93.71
12785;BME280;6456;42.680;23.260;2023-05-10T12:44:15;94918.16;;;13.99;93.87
12785;BME280;6456;42.680;23.260;2023-05-10T12:46:43;94920.41;;;13.84;92.80
12785;BME280;6456;42.680;23.260;2023-05-10T12:49:10;94913.56;;;13.65;92.61
12785;BME280;6456;42.680;23.260;2023-05-10T12:51:37;94916.81;;;13.49;93.33
12785;BME280;6456;42.680;23.260;2023-05-10T12:54:12;94914.91;;;13.38;95.74
12785;BME280;6456;42.680;23.260;2023-05-10T12:56:39;94909.63;;;13.38;96.26
12785;BME280;6456;42.680;23.260;2023-05-10T12:59:08;94906.78;;;13.39;96.18
12785;BME280;6456;42.680;23.260;2023-05-10T13:01:34;94879.75;;;13.37;96.33
12785;BME280;6456;42.680;23.260;2023-05-10T13:04:01;94903.31;;;13.21;95.60
12785;BME280;6456;42.680;23.260;2023-05-10T13:06:28;94816.03;;;12.61;96.72
12785;BME280;6456;42.680;23.260;2023-05-10T13:08:58;94865.88;;;13.06;97.92
12785;BME280;6456;42.680;23.260;2023-05-10T13:11:26;94877.50;;;13.05;98.03
12785;BME280;6456;42.680;23.260;2023-05-10T13:13:53;94898.00;;;13.09;98.45
12785;BME280;6456;42.680;23.260;2023-05-10T13:16:20;94888.44;;;13.08;98.56